sensor_id;sensor_type;location;lat;lon;timestamp;temperature;humidity
43671;DHT22;29267;50.906;7.248;2022-09-03T00:01:58;17.90;74.10
43671;DHT22;29267;50.906;7.248;2022-09-03T00:05:17;17.90;74.20
43671;DHT22;29267;50.906;7.248;2022-09-03T00:07:38;17.90;73.30
43671;DHT22;29267;50.906;7.248;2022-09-03T00:10:11;17.80;74.30
43671;DHT22;29267;50.906;7.248;2022-09-03T00:12:42;17.80;73.70
43671;DHT22;29267;50.906;7.248;2022-09-03T00:15:27;17.70;74.20
43671;DHT22;29267;50.906;7.248;2022-09-03T00:18:33;17.80;74.40
43671;DHT22;29267;50.906;7.248;2022-09-03T00:21:18;17.80;74.00
43671;DHT22;29267;50.906;7.248;2022-09-03T00:23:47;17.80;74.60
43671;DHT22;29267;50.906;7.248;2022-09-03T00:26:32;17.80;74.60
43671;DHT22;29267;50.906;7.248;2022-09-03T00:31:49;17.70;74.60
43671;DHT22;29267;50.906;7.248;2022-09-03T00:36:52;17.80;74.80
43671;DHT22;29267;50.906;7.248;2022-09-03T00:39:20;17.70;75.30
43671;DHT22;29267;50.906;7.248;2022-09-03T00:47:03;17.70;75.00
43671;DHT22;29267;50.906;7.248;2022-09-03T00:55:10;17.60;75.30
43671;DHT22;29267;50.906;7.248;2022-09-03T01:00:19;17.60;75.30
43671;DHT22;29267;50.906;7.248;2022-09-03T01:03:05;17.60;75.90
43671;DHT22;29267;50.906;7.248;2022-09-03T01:05:46;17.70;75.40
43671;DHT22;29267;50.906;7.248;2022-09-03T01:08:36;17.70;75.30
43671;DHT22;29267;50.906;7.248;2022-09-03T01:11:31;17.60;75.40
43671;DHT22;29267;50.906;7.248;2022-09-03T01:23:26;17.60;75.80
43671;DHT22;29267;50.906;7.248;2022-09-03T01:34:09;17.50;75.30
43671;DHT22;29267;50.906;7.248;2022-09-03T02:00:03;17.30;77.20
43671;DHT22;29267;50.906;7.248;2022-09-03T02:02:30;17.40;76.40
43671;DHT22;29267;50.906;7.248;2022-09-03T02:07:33;17.50;76.50
43671;DHT22;29267;50.906;7.248;2022-09-03T02:10:01;17.40;77.00
43671;DHT22;29267;50.906;7.248;2022-09-03T02:12:30;17.40;76.80
43671;DHT22;29267;50.906;7.248;2022-09-03T02:14:59;17.50;76.70
43671;DHT22;29267;50.906;7.248;2022-09-03T02:17:28;17.30;76.80
43671;DHT22;29267;50.906;7.248;2022-09-03T02:19:54;17.30;76.60
43671;DHT22;29267;50.906;7.248;2022-09-03T02:22:20;17.30;76.90
43671;DHT22;29267;50.906;7.248;2022-09-03T02:24:46;17.40;76.70
43671;DHT22;29267;50.906;7.248;2022-09-03T02:27:12;17.30;76.90
43671;DHT22;29267;50.906;7.248;2022-09-03T02:29:38;17.40;77.00
43671;DHT22;29267;50.906;7.248;2022-09-03T02:32:05;17.30;77.40
43671;DHT22;29267;50.906;7.248;2022-09-03T02:34:31;17.20;77.50
43671;DHT22;29267;50.906;7.248;2022-09-03T02:36:57;17.20;76.70
43671;DHT22;29267;50.906;7.248;2022-09-03T02:39:22;17.20;76.60
43671;DHT22;29267;50.906;7.248;2022-09-03T02:41:56;17.20;77.00
43671;DHT22;29267;50.906;7.248;2022-09-03T02:44:28;17.20;77.30
43671;DHT22;29267;50.906;7.248;2022-09-03T02:47:01;17.20;77.50
43671;DHT22;29267;50.906;7.248;2022-09-03T02:49:28;17.20;77.80
43671;DHT22;29267;50.906;7.248;2022-09-03T02:51:59;17.10;77.70
43671;DHT22;29267;50.906;7.248;2022-09-03T02:54:31;17.10;78.10
43671;DHT22;29267;50.906;7.248;2022-09-03T02:57:00;16.90;77.50
43671;DHT22;29267;50.906;7.248;2022-09-03T02:59:26;16.90;77.90
43671;DHT22;29267;50.906;7.248;2022-09-03T03:01:55;16.80;77.90
43671;DHT22;29267;50.906;7.248;2022-09-03T03:04:21;16.90;77.90
43671;DHT22;29267;50.906;7.248;2022-09-03T03:06:48;17.00;77.90
43671;DHT22;29267;50.906;7.248;2022-09-03T03:09:16;16.90;78.20
43671;DHT22;29267;50.906;7.248;2022-09-03T03:11:42;17.00;78.00
43671;DHT22;29267;50.906;7.248;2022-09-03T03:14:08;16.90;78.00
43671;DHT22;29267;50.906;7.248;2022-09-03T03:16:34;16.90;78.40
43671;DHT22;29267;50.906;7.248;2022-09-03T03:18:59;16.80;78.50
43671;DHT22;29267;50.906;7.248;2022-09-03T03:21:25;16.90;78.50
43671;DHT22;29267;50.906;7.248;2022-09-03T03:23:51;16.90;78.80
43671;DHT22;29267;50.906;7.248;2022-09-03T03:26:19;16.90;78.90
43671;DHT22;29267;50.906;7.248;2022-09-03T03:28:46;16.90;78.90
43671;DHT22;29267;50.906;7.248;2022-09-03T03:31:19;16.90;78.50
43671;DHT22;29267;50.906;7.248;2022-09-03T03:33:52;16.90;78.60
43671;DHT22;29267;50.906;7.248;2022-09-03T03:36:19;16.90;78.50
43671;DHT22;29267;50.906;7.248;2022-09-03T03:38:45;16.90;78.70
43671;DHT22;29267;50.906;7.248;2022-09-03T03:41:17;16.80;79.00
43671;DHT22;29267;50.906;7.248;2022-09-03T03:43:44;16.90;78.90
43671;DHT22;29267;50.906;7.248;2022-09-03T03:46:10;17.00;78.50
43671;DHT22;29267;50.906;7.248;2022-09-03T03:48:37;16.90;78.90
43671;DHT22;29267;50.906;7.248;2022-09-03T03:51:05;16.80;79.20
43671;DHT22;29267;50.906;7.248;2022-09-03T03:53:36;16.80;79.00
43671;DHT22;29267;50.906;7.248;2022-09-03T03:56:05;16.80;78.90
43671;DHT22;29267;50.906;7.248;2022-09-03T03:58:31;16.70;79.40
43671;DHT22;29267;50.906;7.248;2022-09-03T04:01:15;16.70;79.00
43671;DHT22;29267;50.906;7.248;2022-09-03T04:03:41;16.70;78.80
43671;DHT22;29267;50.906;7.248;2022-09-03T04:06:08;16.70;79.20
43671;DHT22;29267;50.906;7.248;2022-09-03T04:08:36;16.70;79.50
43671;DHT22;29267;50.906;7.248;2022-09-03T04:11:04;16.80;79.40
43671;DHT22;29267;50.906;7.248;2022-09-03T04:13:31;16.70;80.00
43671;DHT22;29267;50.906;7.248;2022-09-03T04:16:08;16.70;79.50
43671;DHT22;29267;50.906;7.248;2022-09-03T04:18:38;16.60;79.80
43671;DHT22;29267;50.906;7.248;2022-09-03T04:21:06;16.60;80.00
43671;DHT22;29267;50.906;7.248;2022-09-03T04:23:34;16.70;79.90
43671;DHT22;29267;50.906;7.248;2022-09-03T04:26:00;16.60;79.80
43671;DHT22;29267;50.906;7.248;2022-09-03T04:28:26;16.60;79.70
43671;DHT22;29267;50.906;7.248;2022-09-03T04:30:52;16.50;79.40
43671;DHT22;29267;50.906;7.248;2022-09-03T04:33:19;16.50;79.90
43671;DHT22;29267;50.906;7.248;2022-09-03T04:35:45;16.50;79.80
43671;DHT22;29267;50.906;7.248;2022-09-03T04:38:11;16.50;80.40
43671;DHT22;29267;50.906;7.248;2022-09-03T04:40:37;16.60;79.60
43671;DHT22;29267;50.906;7.248;2022-09-03T04:43:03;16.70;79.80
43671;DHT22;29267;50.906;7.248;2022-09-03T04:45:29;16.70;79.80
43671;DHT22;29267;50.906;7.248;2022-09-03T04:50:22;16.60;80.50
43671;DHT22;29267;50.906;7.248;2022-09-03T04:52:48;16.60;80.90
43671;DHT22;29267;50.906;7.248;2022-09-03T04:55:13;16.60;80.40
43671;DHT22;29267;50.906;7.248;2022-09-03T04:57:40;16.60;80.20
43671;DHT22;29267;50.906;7.248;2022-09-03T05:00:08;16.60;80.50
43671;DHT22;29267;50.906;7.248;2022-09-03T05:02:36;16.70;80.40
43671;DHT22;29267;50.906;7.248;2022-09-03T05:05:02;16.70;80.30
43671;DHT22;29267;50.906;7.248;2022-09-03T05:07:29;16.70;80.10
43671;DHT22;29267;50.906;7.248;2022-09-03T05:10:10;16.70;80.00
43671;DHT22;29267;50.906;7.248;2022-09-03T05:12:38;16.70;80.60
43671;DHT22;29267;50.906;7.248;2022-09-03T05:15:04;16.60;80.70
43671;DHT22;29267;50.906;7.248;2022-09-03T05:17:30;16.70;80.60
43671;DHT22;29267;50.906;7.248;2022-09-03T05:19:56;16.70;81.20
43671;DHT22;29267;50.906;7.248;2022-09-03T05:22:22;16.70;80.70
43671;DHT22;29267;50.906;7.248;2022-09-03T05:24:48;16.80;80.80
43671;DHT22;29267;50.906;7.248;2022-09-03T05:27:15;16.70;81.20
43671;DHT22;29267;50.906;7.248;2022-09-03T05:29:42;16.70;80.80
43671;DHT22;29267;50.906;7.248;2022-09-03T05:32:08;16.80;81.20
43671;DHT22;29267;50.906;7.248;2022-09-03T05:34:34;16.60;80.60
43671;DHT22;29267;50.906;7.248;2022-09-03T05:37:00;16.70;81.00
43671;DHT22;29267;50.906;7.248;2022-09-03T05:39:26;16.80;80.70
43671;DHT22;29267;50.906;7.248;2022-09-03T05:41:52;16.80;81.60
43671;DHT22;29267;50.906;7.248;2022-09-03T05:44:18;16.80;80.70
43671;DHT22;29267;50.906;7.248;2022-09-03T05:46:45;16.80;80.80
43671;DHT22;29267;50.906;7.248;2022-09-03T05:49:14;16.80;81.10
43671;DHT22;29267;50.906;7.248;2022-09-03T05:51:40;16.90;81.30
43671;DHT22;29267;50.906;7.248;2022-09-03T05:54:08;16.90;81.90
43671;DHT22;29267;50.906;7.248;2022-09-03T05:56:35;16.90;81.40
43671;DHT22;29267;50.906;7.248;2022-09-03T05:59:03;16.90;81.40
43671;DHT22;29267;50.906;7.248;2022-09-03T06:01:39;17.00;81.20
43671;DHT22;29267;50.906;7.248;2022-09-03T06:04:09;17.00;81.60
43671;DHT22;29267;50.906;7.248;2022-09-03T06:06:37;16.90;81.50
43671;DHT22;29267;50.906;7.248;2022-09-03T06:09:06;16.90;81.80
43671;DHT22;29267;50.906;7.248;2022-09-03T06:11:34;17.00;82.10
43671;DHT22;29267;50.906;7.248;2022-09-03T06:14:01;17.00;81.30
43671;DHT22;29267;50.906;7.248;2022-09-03T06:16:28;17.10;81.70
43671;DHT22;29267;50.906;7.248;2022-09-03T06:18:54;17.20;81.20
43671;DHT22;29267;50.906;7.248;2022-09-03T06:21:21;17.10;81.20
43671;DHT22;29267;50.906;7.248;2022-09-03T06:23:51;17.20;81.00
43671;DHT22;29267;50.906;7.248;2022-09-03T06:26:20;17.30;80.70
43671;DHT22;29267;50.906;7.248;2022-09-03T06:28:46;17.30;80.90
43671;DHT22;29267;50.906;7.248;2022-09-03T06:31:17;17.20;80.40
43671;DHT22;29267;50.906;7.248;2022-09-03T06:33:44;17.30;80.40
43671;DHT22;29267;50.906;7.248;2022-09-03T06:36:17;17.30;81.10
43671;DHT22;29267;50.906;7.248;2022-09-03T06:38:44;17.30;82.10
43671;DHT22;29267;50.906;7.248;2022-09-03T06:41:16;17.30;81.20
43671;DHT22;29267;50.906;7.248;2022-09-03T06:43:46;17.40;81.60
43671;DHT22;29267;50.906;7.248;2022-09-03T06:46:14;17.40;81.40
43671;DHT22;29267;50.906;7.248;2022-09-03T06:48:41;17.50;81.60
43671;DHT22;29267;50.906;7.248;2022-09-03T06:51:12;17.50;81.60
43671;DHT22;29267;50.906;7.248;2022-09-03T06:53:40;17.50;81.40
43671;DHT22;29267;50.906;7.248;2022-09-03T06:56:08;17.60;81.30
43671;DHT22;29267;50.906;7.248;2022-09-03T06:58:43;17.60;81.20
43671;DHT22;29267;50.906;7.248;2022-09-03T07:03:39;17.80;80.70
43671;DHT22;29267;50.906;7.248;2022-09-03T07:06:08;17.80;80.60
43671;DHT22;29267;50.906;7.248;2022-09-03T07:08:34;17.80;80.60
43671;DHT22;29267;50.906;7.248;2022-09-03T07:11:01;18.00;80.50
43671;DHT22;29267;50.906;7.248;2022-09-03T07:13:34;18.20;80.00
43671;DHT22;29267;50.906;7.248;2022-09-03T07:16:21;18.40;79.60
43671;DHT22;29267;50.906;7.248;2022-09-03T07:18:48;18.50;79.80
43671;DHT22;29267;50.906;7.248;2022-09-03T07:21:27;18.60;78.90
43671;DHT22;29267;50.906;7.248;2022-09-03T07:23:54;18.60;78.70
43671;DHT22;29267;50.906;7.248;2022-09-03T07:26:21;18.70;78.90
43671;DHT22;29267;50.906;7.248;2022-09-03T07:28:48;18.70;78.30
43671;DHT22;29267;50.906;7.248;2022-09-03T07:33:58;18.80;78.10
43671;DHT22;29267;50.906;7.248;2022-09-03T07:36:25;18.90;78.40
43671;DHT22;29267;50.906;7.248;2022-09-03T07:38:56;18.90;78.00
43671;DHT22;29267;50.906;7.248;2022-09-03T07:41:23;18.90;77.90
43671;DHT22;29267;50.906;7.248;2022-09-03T07:43:51;18.80;77.80
43671;DHT22;29267;50.906;7.248;2022-09-03T07:46:20;18.80;78.70
43671;DHT22;29267;50.906;7.248;2022-09-03T07:48:54;18.80;78.90
43671;DHT22;29267;50.906;7.248;2022-09-03T07:51:25;18.80;78.30
43671;DHT22;29267;50.906;7.248;2022-09-03T07:53:55;18.90;78.20
43671;DHT22;29267;50.906;7.248;2022-09-03T07:56:23;19.00;79.30
43671;DHT22;29267;50.906;7.248;2022-09-03T07:58:49;19.00;78.60
43671;DHT22;29267;50.906;7.248;2022-09-03T08:01:20;19.10;78.20
43671;DHT22;29267;50.906;7.248;2022-09-03T08:03:48;19.20;78.10
43671;DHT22;29267;50.906;7.248;2022-09-03T08:06:16;19.30;78.10
43671;DHT22;29267;50.906;7.248;2022-09-03T08:08:42;19.40;78.20
43671;DHT22;29267;50.906;7.248;2022-09-03T08:11:15;19.50;77.80
43671;DHT22;29267;50.906;7.248;2022-09-03T08:13:43;19.60;77.70
43671;DHT22;29267;50.906;7.248;2022-09-03T08:16:16;19.70;77.70
43671;DHT22;29267;50.906;7.248;2022-09-03T08:18:45;19.80;77.80
43671;DHT22;29267;50.906;7.248;2022-09-03T08:21:17;19.70;77.40
43671;DHT22;29267;50.906;7.248;2022-09-03T08:23:48;19.60;77.20
43671;DHT22;29267;50.906;7.248;2022-09-03T08:26:15;19.50;77.50
43671;DHT22;29267;50.906;7.248;2022-09-03T08:28:41;19.50;77.70
43671;DHT22;29267;50.906;7.248;2022-09-03T08:31:17;19.50;77.70
43671;DHT22;29267;50.906;7.248;2022-09-03T08:33:50;19.60;77.70
43671;DHT22;29267;50.906;7.248;2022-09-03T08:36:17;19.50;77.70
43671;DHT22;29267;50.906;7.248;2022-09-03T08:38:44;19.40;77.80
43671;DHT22;29267;50.906;7.248;2022-09-03T08:41:16;19.40;78.00
43671;DHT22;29267;50.906;7.248;2022-09-03T08:47:05;19.40;78.50
43671;DHT22;29267;50.906;7.248;2022-09-03T08:49:47;19.40;78.70
43671;DHT22;29267;50.906;7.248;2022-09-03T08:52:41;19.40;78.70
43671;DHT22;29267;50.906;7.248;2022-09-03T08:55:15;19.30;79.20
43671;DHT22;29267;50.906;7.248;2022-09-03T08:57:52;19.40;80.60
43671;DHT22;29267;50.906;7.248;2022-09-03T09:00:21;19.30;80.60
43671;DHT22;29267;50.906;7.248;2022-09-03T09:03:06;19.30;80.70
43671;DHT22;29267;50.906;7.248;2022-09-03T09:14:34;19.30;81.30
43671;DHT22;29267;50.906;7.248;2022-09-03T09:24:52;19.30;81.40
43671;DHT22;29267;50.906;7.248;2022-09-03T09:27:19;19.30;81.60
43671;DHT22;29267;50.906;7.248;2022-09-03T09:29:48;19.30;82.00
43671;DHT22;29267;50.906;7.248;2022-09-03T09:32:16;19.30;83.30
43671;DHT22;29267;50.906;7.248;2022-09-03T09:34:43;19.30;83.30
43671;DHT22;29267;50.906;7.248;2022-09-03T09:37:12;19.30;83.60
43671;DHT22;29267;50.906;7.248;2022-09-03T09:39:40;19.30;83.60
43671;DHT22;29267;50.906;7.248;2022-09-03T09:42:10;19.30;83.80
43671;DHT22;29267;50.906;7.248;2022-09-03T09:44:41;19.40;84.70
43671;DHT22;29267;50.906;7.248;2022-09-03T09:47:40;19.30;83.80
43671;DHT22;29267;50.906;7.248;2022-09-03T09:50:17;19.30;84.20
43671;DHT22;29267;50.906;7.248;2022-09-03T09:52:45;19.30;84.10
43671;DHT22;29267;50.906;7.248;2022-09-03T09:55:16;19.30;83.40
43671;DHT22;29267;50.906;7.248;2022-09-03T09:57:44;19.30;83.30
43671;DHT22;29267;50.906;7.248;2022-09-03T10:00:16;19.20;83.60
43671;DHT22;29267;50.906;7.248;2022-09-03T10:02:50;19.20;83.40
43671;DHT22;29267;50.906;7.248;2022-09-03T10:05:27;19.30;83.90
43671;DHT22;29267;50.906;7.248;2022-09-03T10:08:00;19.30;83.80
43671;DHT22;29267;50.906;7.248;2022-09-03T10:10:31;19.30;83.90
43671;DHT22;29267;50.906;7.248;2022-09-03T10:13:09;19.30;83.80
43671;DHT22;29267;50.906;7.248;2022-09-03T10:15:57;19.30;83.60
43671;DHT22;29267;50.906;7.248;2022-09-03T10:18:44;19.40;83.30
43671;DHT22;29267;50.906;7.248;2022-09-03T10:21:14;19.30;83.00
43671;DHT22;29267;50.906;7.248;2022-09-03T10:26:29;19.30;83.20
43671;DHT22;29267;50.906;7.248;2022-09-03T10:28:57;19.30;83.10
43671;DHT22;29267;50.906;7.248;2022-09-03T10:34:21;19.20;83.20
43671;DHT22;29267;50.906;7.248;2022-09-03T10:42:31;19.30;83.30
43671;DHT22;29267;50.906;7.248;2022-09-03T10:47:52;19.30;84.20
43671;DHT22;29267;50.906;7.248;2022-09-03T10:56:00;19.40;84.20
43671;DHT22;29267;50.906;7.248;2022-09-03T10:58:52;19.40;83.80
43671;DHT22;29267;50.906;7.248;2022-09-03T11:04:27;19.40;84.20
43671;DHT22;29267;50.906;7.248;2022-09-03T11:07:03;19.40;84.20
43671;DHT22;29267;50.906;7.248;2022-09-03T11:09:45;19.40;84.50
43671;DHT22;29267;50.906;7.248;2022-09-03T11:12:19;19.40;84.40
43671;DHT22;29267;50.906;7.248;2022-09-03T11:14:58;19.40;84.30
43671;DHT22;29267;50.906;7.248;2022-09-03T11:17:46;19.40;84.40
43671;DHT22;29267;50.906;7.248;2022-09-03T11:20:20;19.50;84.80
43671;DHT22;29267;50.906;7.248;2022-09-03T11:22:50;19.50;85.00
43671;DHT22;29267;50.906;7.248;2022-09-03T11:25:19;19.50;85.00
43671;DHT22;29267;50.906;7.248;2022-09-03T11:34:12;19.50;84.90
43671;DHT22;29267;50.906;7.248;2022-09-03T11:36:39;19.60;84.70
43671;DHT22;29267;50.906;7.248;2022-09-03T11:41:56;19.50;84.50
43671;DHT22;29267;50.906;7.248;2022-09-03T11:44:22;19.50;84.60
43671;DHT22;29267;50.906;7.248;2022-09-03T11:46:56;19.50;84.70
43671;DHT22;29267;50.906;7.248;2022-09-03T11:49:30;19.50;85.20
43671;DHT22;29267;50.906;7.248;2022-09-03T11:52:05;19.60;85.50
43671;DHT22;29267;50.906;7.248;2022-09-03T11:54:45;19.60;85.10
43671;DHT22;29267;50.906;7.248;2022-09-03T11:57:12;19.50;84.80
43671;DHT22;29267;50.906;7.248;2022-09-03T11:59:40;19.50;84.80
43671;DHT22;29267;50.906;7.248;2022-09-03T12:02:29;19.50;84.90
43671;DHT22;29267;50.906;7.248;2022-09-03T12:11:08;19.50;85.20
43671;DHT22;29267;50.906;7.248;2022-09-03T12:13:54;19.50;85.10
43671;DHT22;29267;50.906;7.248;2022-09-03T12:19:08;19.50;85.20
43671;DHT22;29267;50.906;7.248;2022-09-03T12:21:39;19.50;85.10
43671;DHT22;29267;50.906;7.248;2022-09-03T12:24:05;19.50;85.60
43671;DHT22;29267;50.906;7.248;2022-09-03T12:26:41;19.60;85.90
43671;DHT22;29267;50.906;7.248;2022-09-03T12:29:22;19.60;85.60
43671;DHT22;29267;50.906;7.248;2022-09-03T12:31:49;19.60;86.70
43671;DHT22;29267;50.906;7.248;2022-09-03T12:34:17;19.70;86.40
43671;DHT22;29267;50.906;7.248;2022-09-03T12:36:49;19.70;86.40
43671;DHT22;29267;50.906;7.248;2022-09-03T12:39:22;19.60;86.50
43671;DHT22;29267;50.906;7.248;2022-09-03T12:42:04;19.70;87.30
43671;DHT22;29267;50.906;7.248;2022-09-03T12:47:10;19.70;86.90
43671;DHT22;29267;50.906;7.248;2022-09-03T12:49:39;19.70;87.90
43671;DHT22;29267;50.906;7.248;2022-09-03T12:55:02;19.70;87.20
43671;DHT22;29267;50.906;7.248;2022-09-03T12:57:42;19.70;86.90
43671;DHT22;29267;50.906;7.248;2022-09-03T13:00:13;19.70;88.00
43671;DHT22;29267;50.906;7.248;2022-09-03T13:02:52;19.70;87.90
43671;DHT22;29267;50.906;7.248;2022-09-03T13:05:32;19.70;88.00
43671;DHT22;29267;50.906;7.248;2022-09-03T13:08:01;19.70;88.00
43671;DHT22;29267;50.906;7.248;2022-09-03T13:10:35;19.70;87.90
43671;DHT22;29267;50.906;7.248;2022-09-03T13:13:22;19.70;88.00
43671;DHT22;29267;50.906;7.248;2022-09-03T13:24:12;19.70;88.40
43671;DHT22;29267;50.906;7.248;2022-09-03T13:31:54;19.70;88.00
43671;DHT22;29267;50.906;7.248;2022-09-03T13:35:07;19.70;88.10
43671;DHT22;29267;50.906;7.248;2022-09-03T13:37:45;19.80;88.20
43671;DHT22;29267;50.906;7.248;2022-09-03T13:40:22;19.70;87.90
43671;DHT22;29267;50.906;7.248;2022-09-03T13:42:55;19.80;88.10
43671;DHT22;29267;50.906;7.248;2022-09-03T13:45:42;19.80;89.20
43671;DHT22;29267;50.906;7.248;2022-09-03T13:59:53;19.80;88.60
43671;DHT22;29267;50.906;7.248;2022-09-03T14:02:54;19.90;88.90
43671;DHT22;29267;50.906;7.248;2022-09-03T14:05:37;19.90;89.00
43671;DHT22;29267;50.906;7.248;2022-09-03T14:08:27;19.90;89.30
43671;DHT22;29267;50.906;7.248;2022-09-03T14:16:49;19.90;89.10
43671;DHT22;29267;50.906;7.248;2022-09-03T14:19:51;19.90;89.10
43671;DHT22;29267;50.906;7.248;2022-09-03T14:22:20;19.90;89.20
43671;DHT22;29267;50.906;7.248;2022-09-03T14:25:01;19.90;89.30
43671;DHT22;29267;50.906;7.248;2022-09-03T14:27:32;19.90;88.90
43671;DHT22;29267;50.906;7.248;2022-09-03T14:30:02;19.90;88.80
43671;DHT22;29267;50.906;7.248;2022-09-03T14:33:00;19.90;88.60
43671;DHT22;29267;50.906;7.248;2022-09-03T14:35:50;19.90;88.50
43671;DHT22;29267;50.906;7.248;2022-09-03T14:40:59;19.90;88.40
43671;DHT22;29267;50.906;7.248;2022-09-03T14:49:54;19.90;88.70
43671;DHT22;29267;50.906;7.248;2022-09-03T14:52:16;19.90;89.10
43671;DHT22;29267;50.906;7.248;2022-09-03T15:00:59;19.90;88.90
43671;DHT22;29267;50.906;7.248;2022-09-03T15:11:19;20.00;88.80
43671;DHT22;29267;50.906;7.248;2022-09-03T15:14:04;19.90;88.80
43671;DHT22;29267;50.906;7.248;2022-09-03T15:16:58;20.00;88.70
43671;DHT22;29267;50.906;7.248;2022-09-03T15:19:50;20.00;88.80
43671;DHT22;29267;50.906;7.248;2022-09-03T15:22:33;20.00;89.40
43671;DHT22;29267;50.906;7.248;2022-09-03T15:30:22;20.00;89.30
43671;DHT22;29267;50.906;7.248;2022-09-03T15:39:03;20.10;90.50
43671;DHT22;29267;50.906;7.248;2022-09-03T15:44:00;20.50;90.70
43671;DHT22;29267;50.906;7.248;2022-09-03T15:49:20;20.90;90.10
43671;DHT22;29267;50.906;7.248;2022-09-03T15:57:24;21.50;88.30
43671;DHT22;29267;50.906;7.248;2022-09-03T16:08:24;21.70;87.40
43671;DHT22;29267;50.906;7.248;2022-09-03T16:11:14;21.70;87.20
43671;DHT22;29267;50.906;7.248;2022-09-03T16:14:07;21.80;87.30
43671;DHT22;29267;50.906;7.248;2022-09-03T16:17:07;21.80;86.90
43671;DHT22;29267;50.906;7.248;2022-09-03T16:22:37;21.80;86.90
43671;DHT22;29267;50.906;7.248;2022-09-03T16:25:21;21.80;86.90
43671;DHT22;29267;50.906;7.248;2022-09-03T16:47:10;21.80;87.20
43671;DHT22;29267;50.906;7.248;2022-09-03T16:58:21;21.70;87.80
43671;DHT22;29267;50.906;7.248;2022-09-03T17:03:51;21.70;88.10
43671;DHT22;29267;50.906;7.248;2022-09-03T17:06:46;21.70;88.10
43671;DHT22;29267;50.906;7.248;2022-09-03T17:09:25;21.70;88.30
43671;DHT22;29267;50.906;7.248;2022-09-03T17:17:30;21.60;88.80
43671;DHT22;29267;50.906;7.248;2022-09-03T17:20:14;21.50;89.40
43671;DHT22;29267;50.906;7.248;2022-09-03T17:23:15;21.50;90.10
43671;DHT22;29267;50.906;7.248;2022-09-03T17:46:13;21.50;90.50
43671;DHT22;29267;50.906;7.248;2022-09-03T17:48:59;21.40;90.40
43671;DHT22;29267;50.906;7.248;2022-09-03T17:51:35;21.50;90.60
43671;DHT22;29267;50.906;7.248;2022-09-03T17:54:14;21.40;90.60
43671;DHT22;29267;50.906;7.248;2022-09-03T17:57:23;21.40;90.80
43671;DHT22;29267;50.906;7.248;2022-09-03T18:05:24;21.40;90.80
43671;DHT22;29267;50.906;7.248;2022-09-03T18:18:56;21.30;91.30
43671;DHT22;29267;50.906;7.248;2022-09-03T18:21:27;21.30;91.30
43671;DHT22;29267;50.906;7.248;2022-09-03T18:24:42;21.30;91.20
43671;DHT22;29267;50.906;7.248;2022-09-03T18:27:42;21.20;91.20
43671;DHT22;29267;50.906;7.248;2022-09-03T18:30:27;21.20;91.10
43671;DHT22;29267;50.906;7.248;2022-09-03T18:33:12;21.20;91.70
43671;DHT22;29267;50.906;7.248;2022-09-03T18:35:57;21.20;91.40
43671;DHT22;29267;50.906;7.248;2022-09-03T18:38:42;21.20;91.40
43671;DHT22;29267;50.906;7.248;2022-09-03T19:02:42;21.10;91.50
43671;DHT22;29267;50.906;7.248;2022-09-03T19:08:56;21.10;91.30
43671;DHT22;29267;50.906;7.248;2022-09-03T19:18:00;21.00;90.90
43671;DHT22;29267;50.906;7.248;2022-09-03T19:21:18;21.00;90.90
43671;DHT22;29267;50.906;7.248;2022-09-03T19:24:04;21.10;91.00
43671;DHT22;29267;50.906;7.248;2022-09-03T19:27:14;21.10;91.20
43671;DHT22;29267;50.906;7.248;2022-09-03T19:31:17;21.00;90.80
43671;DHT22;29267;50.906;7.248;2022-09-03T19:33:46;21.10;90.90
43671;DHT22;29267;50.906;7.248;2022-09-03T19:40:22;21.10;91.10
43671;DHT22;29267;50.906;7.248;2022-09-03T19:43:28;21.10;91.20
43671;DHT22;29267;50.906;7.248;2022-09-03T19:52:13;21.10;91.20
43671;DHT22;29267;50.906;7.248;2022-09-03T19:55:02;21.00;91.10
43671;DHT22;29267;50.906;7.248;2022-09-03T19:57:52;21.00;91.10
43671;DHT22;29267;50.906;7.248;2022-09-03T20:00:38;21.10;91.20
43671;DHT22;29267;50.906;7.248;2022-09-03T20:03:24;21.00;91.30
43671;DHT22;29267;50.906;7.248;2022-09-03T20:06:09;21.00;91.30
43671;DHT22;29267;50.906;7.248;2022-09-03T20:08:57;21.00;91.10
43671;DHT22;29267;50.906;7.248;2022-09-03T20:11:42;21.00;91.10
43671;DHT22;29267;50.906;7.248;2022-09-03T20:14:14;21.00;91.20
43671;DHT22;29267;50.906;7.248;2022-09-03T20:17:04;21.00;91.10
43671;DHT22;29267;50.906;7.248;2022-09-03T20:22:25;21.00;91.10
43671;DHT22;29267;50.906;7.248;2022-09-03T20:31:14;21.00;91.10
43671;DHT22;29267;50.906;7.248;2022-09-03T20:39:39;21.00;91.30
43671;DHT22;29267;50.906;7.248;2022-09-03T20:42:43;21.00;91.40
43671;DHT22;29267;50.906;7.248;2022-09-03T20:55:27;20.90;91.10
43671;DHT22;29267;50.906;7.248;2022-09-03T20:58:08;20.90;91.20
43671;DHT22;29267;50.906;7.248;2022-09-03T21:01:25;20.90;91.40
43671;DHT22;29267;50.906;7.248;2022-09-03T21:13:15;20.90;91.50
43671;DHT22;29267;50.906;7.248;2022-09-03T21:23:42;20.80;91.50
43671;DHT22;29267;50.906;7.248;2022-09-03T21:26:22;20.80;91.60
43671;DHT22;29267;50.906;7.248;2022-09-03T21:29:28;20.90;91.50
43671;DHT22;29267;50.906;7.248;2022-09-03T21:32:03;20.90;91.60
43671;DHT22;29267;50.906;7.248;2022-09-03T21:37:00;20.80;91.60
43671;DHT22;29267;50.906;7.248;2022-09-03T21:39:43;20.80;91.60
43671;DHT22;29267;50.906;7.248;2022-09-03T21:42:17;20.80;91.60
43671;DHT22;29267;50.906;7.248;2022-09-03T21:44:57;20.80;91.40
43671;DHT22;29267;50.906;7.248;2022-09-03T21:47:26;20.80;91.50
43671;DHT22;29267;50.906;7.248;2022-09-03T21:50:04;20.80;91.50
43671;DHT22;29267;50.906;7.248;2022-09-03T21:52:41;20.80;91.60
43671;DHT22;29267;50.906;7.248;2022-09-03T22:00:52;20.80;91.60
43671;DHT22;29267;50.906;7.248;2022-09-03T22:03:20;20.80;91.80
43671;DHT22;29267;50.906;7.248;2022-09-03T22:06:00;20.80;91.60
43671;DHT22;29267;50.906;7.248;2022-09-03T22:08:38;20.80;91.70
43671;DHT22;29267;50.906;7.248;2022-09-03T22:19:14;20.70;91.40
43671;DHT22;29267;50.906;7.248;2022-09-03T22:21:56;20.70;91.40
43671;DHT22;29267;50.906;7.248;2022-09-03T22:27:14;20.70;91.20
43671;DHT22;29267;50.906;7.248;2022-09-03T22:30:02;20.70;91.20
43671;DHT22;29267;50.906;7.248;2022-09-03T22:38:34;20.70;91.30
43671;DHT22;29267;50.906;7.248;2022-09-03T22:49:58;20.70;91.50
43671;DHT22;29267;50.906;7.248;2022-09-03T22:52:38;20.70;91.40
43671;DHT22;29267;50.906;7.248;2022-09-03T22:57:45;20.70;91.40
43671;DHT22;29267;50.906;7.248;2022-09-03T23:00:12;20.70;91.40
43671;DHT22;29267;50.906;7.248;2022-09-03T23:02:39;20.70;91.30
43671;DHT22;29267;50.906;7.248;2022-09-03T23:10:29;20.70;91.30
43671;DHT22;29267;50.906;7.248;2022-09-03T23:13:15;20.60;91.20
43671;DHT22;29267;50.906;7.248;2022-09-03T23:15:46;20.60;91.40
43671;DHT22;29267;50.906;7.248;2022-09-03T23:18:21;20.70;91.40